createdAt,value
2022-11-02T00:02:17.683Z,83.91
2022-11-02T00:04:45.363Z,84.16
2022-11-02T00:07:13.221Z,84.22
2022-11-02T00:09:41.985Z,84.52
2022-11-02T00:12:09.631Z,84.58
2022-11-02T00:14:37.437Z,84.74
2022-11-02T00:17:07.768Z,84.66
2022-11-02T00:19:36.592Z,84.94
2022-11-02T00:22:05.936Z,85.07
2022-11-02T00:24:33.794Z,85.27
2022-11-02T00:27:01.850Z,85.37
2022-11-02T00:29:33.813Z,85.23
2022-11-02T00:32:02.020Z,85.14
2022-11-02T00:34:29.626Z,85.14
2022-11-02T00:36:57.768Z,85.53
2022-11-02T00:39:25.421Z,85.64
2022-11-02T00:41:54.458Z,85.70
2022-11-02T00:44:22.507Z,85.81
2022-11-02T00:46:50.598Z,86.21
2022-11-02T00:49:18.690Z,86.36
2022-11-02T00:51:46.547Z,86.05
2022-11-02T00:54:15.620Z,85.97
2022-11-02T00:56:43.413Z,85.71
2022-11-02T00:59:11.449Z,85.81
2022-11-02T01:01:40.305Z,85.64
2022-11-02T01:04:10.097Z,85.59
2022-11-02T01:06:38.098Z,85.36
2022-11-02T01:09:05.861Z,85.35
2022-11-02T01:11:33.715Z,85.57
2022-11-02T01:14:02.198Z,85.97
2022-11-02T01:16:32.235Z,85.57
2022-11-02T01:19:03.444Z,85.64
2022-11-02T01:21:33.749Z,85.58
2022-11-02T01:24:03.148Z,85.67
2022-11-02T01:26:36.412Z,85.61
2022-11-02T01:29:04.498Z,85.66
2022-11-02T01:31:32.122Z,85.74
2022-11-02T01:33:59.987Z,85.98
2022-11-02T01:36:28.200Z,85.91
2022-11-02T01:38:55.964Z,85.95
2022-11-02T01:41:24.011Z,86.07
2022-11-02T01:43:55.242Z,86.44
2022-11-02T01:46:28.053Z,86.23
2022-11-02T01:49:06.024Z,86.25
2022-11-02T01:51:39.728Z,85.89
2022-11-02T01:54:16.087Z,85.76
2022-11-02T01:56:47.554Z,85.63
2022-11-02T01:59:19.866Z,85.74
2022-11-02T02:01:48.959Z,85.98
2022-11-02T02:04:17.263Z,86.37
2022-11-02T02:06:45.155Z,86.37
2022-11-02T02:09:14.731Z,86.05
2022-11-02T02:11:42.699Z,86.42
2022-11-02T02:14:14.321Z,86.55
2022-11-02T02:17:03.776Z,86.89
2022-11-02T02:19:44.615Z,86.65
2022-11-02T02:23:04.402Z,86.58
2022-11-02T02:26:09.446Z,86.72
2022-11-02T02:28:48.794Z,86.58
2022-11-02T02:31:45.028Z,86.63
2022-11-02T02:34:17.672Z,86.59
2022-11-02T02:36:48.321Z,86.29
2022-11-02T02:39:41.094Z,86.31
2022-11-02T02:42:20.037Z,86.27
2022-11-02T02:45:01.452Z,86.33
2022-11-02T02:47:33.230Z,86.30
2022-11-02T02:50:35.091Z,86.39
2022-11-02T02:53:07.038Z,86.77
2022-11-02T02:55:47.677Z,86.66
2022-11-02T02:58:21.179Z,86.76
2022-11-02T03:00:49.523Z,86.72
2022-11-02T03:03:22.588Z,86.94
2022-11-02T03:06:16.744Z,87.41
2022-11-02T03:08:56.673Z,87.30
2022-11-02T03:11:25.518Z,87.44
2022-11-02T03:14:06.615Z,87.41
2022-11-02T03:19:49.672Z,87.39
2022-11-02T03:22:43.877Z,87.47
2022-11-02T03:25:24.425Z,87.63
2022-11-02T03:28:19.148Z,87.56
2022-11-02T03:30:54.945Z,87.93
2022-11-02T03:33:32.874Z,87.55
2022-11-02T03:36:08.895Z,87.85
2022-11-02T03:38:47.926Z,87.92
2022-11-02T03:41:20.329Z,87.93
2022-11-02T03:43:51.132Z,87.94
2022-11-02T03:46:19.873Z,88.17
2022-11-02T03:48:50.705Z,88.53
2022-11-02T03:51:22.769Z,88.42
2022-11-02T03:53:59.325Z,88.22
2022-11-02T03:56:37.480Z,88.42
2022-11-02T03:59:05.393Z,88.56
2022-11-02T04:01:40.781Z,88.50
2022-11-02T04:04:08.655Z,88.92
2022-11-02T04:06:37.862Z,88.97
2022-11-02T04:09:05.726Z,88.95
2022-11-02T04:11:52.307Z,89.29
2022-11-02T04:14:38.589Z,89.23
2022-11-02T04:20:08.943Z,89.62
2022-11-02T04:22:55.480Z,89.29
2022-11-02T04:25:23.411Z,89.32
2022-11-02T04:28:08.560Z,88.86
2022-11-02T04:30:40.128Z,88.90
2022-11-02T04:33:26.935Z,88.86
2022-11-02T04:36:05.286Z,89.18
2022-11-02T04:38:42.714Z,88.82
2022-11-02T04:41:40.848Z,88.76
2022-11-02T04:44:14.531Z,88.82
2022-11-02T04:46:44.855Z,88.54
2022-11-02T04:49:14.373Z,88.51
2022-11-02T04:51:48.725Z,88.65
2022-11-02T04:54:18.682Z,88.87
2022-11-02T04:56:46.642Z,88.89
2022-11-02T04:59:14.686Z,89.07
2022-11-02T05:01:43.393Z,89.29
2022-11-02T05:04:11.284Z,89.05
2022-11-02T05:06:39.945Z,88.99
2022-11-02T05:09:10.208Z,89.16
2022-11-02T05:11:38.413Z,88.75
2022-11-02T05:14:07.139Z,88.68
2022-11-02T05:16:35.276Z,88.84
2022-11-02T05:19:06.888Z,88.58
2022-11-02T05:21:39.604Z,88.55
2022-11-02T05:24:07.432Z,88.45
2022-11-02T05:26:36.185Z,88.45
2022-11-02T05:29:04.706Z,88.32
2022-11-02T05:31:32.701Z,88.35
2022-11-02T05:34:00.322Z,88.40
2022-11-02T05:36:29.294Z,88.27
2022-11-02T05:38:57.444Z,88.31
2022-11-02T05:41:25.192Z,88.36
2022-11-02T05:43:55.477Z,88.59
2022-11-02T05:46:24.143Z,88.64
2022-11-02T05:48:51.868Z,88.62
2022-11-02T05:51:19.831Z,88.95
2022-11-02T05:53:47.445Z,88.85
2022-11-02T05:56:16.537Z,88.80
2022-11-02T05:58:46.339Z,88.86
2022-11-02T06:01:14.136Z,89.08
2022-11-02T06:03:41.739Z,89.15
2022-11-02T06:06:10.553Z,88.82
2022-11-02T06:08:39.230Z,89.03
2022-11-02T06:11:12.139Z,89.30
2022-11-02T06:13:41.434Z,88.99
2022-11-02T06:16:11.421Z,89.09
2022-11-02T06:18:39.303Z,89.10
2022-11-02T06:21:07.677Z,89.04
2022-11-02T06:23:36.329Z,89.03
2022-11-02T06:26:04.112Z,88.86
2022-11-02T06:28:32.326Z,88.74
2022-11-02T06:31:00.267Z,88.80
2022-11-02T06:33:29.651Z,88.75
2022-11-02T06:35:57.718Z,88.66
2022-11-02T06:38:25.454Z,88.57
2022-11-02T06:41:02.142Z,88.45
2022-11-02T06:43:30.287Z,88.38
2022-11-02T06:45:58.524Z,88.29
2022-11-02T06:48:33.064Z,88.10
2022-11-02T06:51:04.531Z,87.98
2022-11-02T06:53:32.967Z,87.84
2022-11-02T06:56:00.684Z,87.80
2022-11-02T06:58:28.830Z,87.70
2022-11-02T07:01:01.815Z,87.45
2022-11-02T07:03:30.394Z,87.31
2022-11-02T07:05:59.018Z,87.16
2022-11-02T07:08:31.001Z,87.10
2022-11-02T07:11:01.352Z,86.75
2022-11-02T07:13:29.106Z,86.71
2022-11-02T07:15:56.999Z,86.77
2022-11-02T07:18:25.191Z,86.75
2022-11-02T07:20:53.006Z,86.46
2022-11-02T07:23:23.825Z,86.49
2022-11-02T07:25:51.773Z,86.37
2022-11-02T07:28:19.544Z,86.13
2022-11-02T07:30:47.187Z,86.05
2022-11-02T07:33:14.854Z,86.08
2022-11-02T07:35:42.465Z,85.77
2022-11-02T07:38:11.285Z,85.78
2022-11-02T07:40:39.143Z,85.77
2022-11-02T07:43:07.310Z,85.63
2022-11-02T07:45:43.048Z,85.46
2022-11-02T07:48:10.656Z,85.22
2022-11-02T07:50:38.347Z,85.50
2022-11-02T07:53:06.555Z,85.18
2022-11-02T07:55:34.807Z,85.08
2022-11-02T07:58:05.335Z,84.28
2022-11-02T08:00:43.450Z,84.52
2022-11-02T08:06:34.907Z,83.88
2022-11-02T08:09:14.792Z,83.72
2022-11-02T08:11:57.544Z,83.50
2022-11-02T08:14:25.172Z,83.06
2022-11-02T08:16:52.998Z,82.73
2022-11-02T08:19:20.772Z,82.45
2022-11-02T08:21:48.521Z,81.77
2022-11-02T08:24:16.397Z,81.53
2022-11-02T08:26:45.953Z,81.26
2022-11-02T08:29:14.597Z,81.09
2022-11-02T08:31:42.412Z,80.88
2022-11-02T08:34:11.983Z,79.99
2022-11-02T08:36:39.805Z,80.00
2022-11-02T08:39:07.986Z,79.85
2022-11-02T08:41:35.786Z,79.21
2022-11-02T08:44:04.243Z,78.10
2022-11-02T08:46:32.154Z,76.69
2022-11-02T08:49:02.723Z,77.40
2022-11-02T08:51:30.747Z,77.36
2022-11-02T08:53:58.757Z,77.01
2022-11-02T08:56:26.764Z,75.16
2022-11-02T08:58:54.487Z,73.60
2022-11-02T09:01:22.386Z,71.69
2022-11-02T09:03:50.321Z,71.18
2022-11-02T09:06:18.178Z,70.00
2022-11-02T09:08:56.380Z,70.80
2022-11-02T09:11:32.421Z,70.74
2022-11-02T09:14:00.265Z,70.74
2022-11-02T09:16:28.267Z,69.02
2022-11-02T09:19:03.976Z,67.41
2022-11-02T09:21:45.236Z,67.44
2022-11-02T09:24:12.943Z,67.70
2022-11-02T09:26:40.736Z,66.65
2022-11-02T09:29:08.532Z,65.75
2022-11-02T09:31:41.882Z,65.85
2022-11-02T09:34:10.648Z,65.62
2022-11-02T09:36:38.820Z,64.67
2022-11-02T09:39:06.546Z,64.68
2022-11-02T09:41:49.256Z,64.28
2022-11-02T09:44:35.834Z,65.12
2022-11-02T09:47:55.694Z,61.63
2022-11-02T09:49:52.830Z,60.80
2022-11-02T09:52:24.728Z,61.23
2022-11-02T09:54:55.109Z,61.09
2022-11-02T09:57:30.152Z,60.04
2022-11-02T09:59:57.978Z,60.19
2022-11-02T10:02:55.509Z,59.38
2022-11-02T10:05:37.658Z,57.96
2022-11-02T10:08:40.571Z,56.83
2022-11-02T10:11:25.047Z,56.54
2022-11-02T10:13:56.936Z,57.29
2022-11-02T10:16:28.890Z,56.76
2022-11-02T10:18:57.163Z,54.48
2022-11-02T10:21:38.391Z,53.61
2022-11-02T10:24:37.222Z,54.61
2022-11-02T10:27:14.270Z,54.15
2022-11-02T10:30:05.945Z,54.13
2022-11-02T10:32:36.769Z,53.82
2022-11-02T10:35:31.303Z,54.11
2022-11-02T10:38:16.223Z,54.96
2022-11-02T10:41:09.353Z,54.27
2022-11-02T10:44:03.242Z,54.26
2022-11-02T10:46:34.094Z,53.65
2022-11-02T10:49:45.960Z,53.55
2022-11-02T10:52:18.465Z,53.92
2022-11-02T10:54:50.297Z,54.01
2022-11-02T10:57:25.373Z,53.29
2022-11-02T11:00:27.953Z,53.25
2022-11-02T11:03:02.953Z,53.97
2022-11-02T11:05:32.496Z,53.52
2022-11-02T11:08:06.339Z,53.31
2022-11-02T11:10:38.506Z,53.96
2022-11-02T11:13:07.727Z,52.99
2022-11-02T11:15:51.441Z,53.07
2022-11-02T11:21:09.423Z,52.63
2022-11-02T11:23:37.568Z,52.37
2022-11-02T11:26:12.230Z,51.51
2022-11-02T11:28:53.875Z,50.89
2022-11-02T11:31:22.565Z,51.24
2022-11-02T11:33:57.197Z,52.13
2022-11-02T11:36:31.166Z,51.87
2022-11-02T11:39:01.952Z,51.22
2022-11-02T11:41:32.210Z,50.62
2022-11-02T11:44:02.320Z,50.29
2022-11-02T11:46:46.263Z,50.17
2022-11-02T11:49:35.945Z,50.33
2022-11-02T11:52:17.446Z,50.22
2022-11-02T11:54:53.677Z,48.78
2022-11-02T11:57:26.080Z,48.81
2022-11-02T11:59:58.999Z,48.43
2022-11-02T12:02:44.275Z,47.72
2022-11-02T12:05:24.912Z,46.89
2022-11-02T12:08:26.408Z,47.30
2022-11-02T12:11:18.567Z,46.30
2022-11-02T12:13:56.943Z,47.14
2022-11-02T12:16:59.357Z,47.38
2022-11-02T12:19:48.136Z,46.23
2022-11-02T12:22:24.411Z,45.64
2022-11-02T12:25:16.632Z,46.31
2022-11-02T12:27:56.895Z,46.08
2022-11-02T12:30:47.957Z,45.88
2022-11-02T12:33:44.930Z,44.51
2022-11-02T12:36:29.070Z,43.88
2022-11-02T12:39:03.289Z,44.75
2022-11-02T12:41:55.555Z,43.10
2022-11-02T12:44:27.271Z,42.39
2022-11-02T12:47:11.110Z,42.96
2022-11-02T12:49:41.820Z,43.25
2022-11-02T12:52:43.435Z,43.09
2022-11-02T12:55:38.303Z,42.89
2022-11-02T12:58:37.004Z,43.84
2022-11-02T13:01:20.031Z,42.63
2022-11-02T13:04:02.847Z,41.76
2022-11-02T13:07:06.341Z,42.36
2022-11-02T13:10:28.103Z,42.18
2022-11-02T13:14:10.721Z,42.54
2022-11-02T13:17:23.356Z,42.36
2022-11-02T13:19:54.966Z,42.87
2022-11-02T13:22:36.183Z,43.69
2022-11-02T13:25:18.356Z,44.90
2022-11-02T13:27:54.154Z,46.06
2022-11-02T13:30:22.458Z,46.89
2022-11-02T13:33:01.602Z,47.68
2022-11-02T13:35:34.573Z,48.43
2022-11-02T13:38:20.855Z,49.15
2022-11-02T13:41:27.998Z,49.61
2022-11-02T13:43:58.665Z,50.16
2022-11-02T13:46:39.959Z,50.74
2022-11-02T13:49:29.458Z,51.19
2022-11-02T13:52:14.998Z,51.43
2022-11-02T13:54:50.884Z,51.68
2022-11-02T13:57:24.825Z,51.82
2022-11-02T13:59:53.079Z,52.16
2022-11-02T14:02:23.355Z,52.51
2022-11-02T14:04:51.934Z,52.96
2022-11-02T14:07:39.387Z,53.29
2022-11-02T14:10:17.016Z,53.58
2022-11-02T14:12:46.398Z,53.81
2022-11-02T14:15:14.326Z,53.98
2022-11-02T14:17:54.559Z,54.00
2022-11-02T14:20:35.660Z,54.01
2022-11-02T14:23:18.535Z,54.00
2022-11-02T14:26:12.083Z,54.15
2022-11-02T14:29:00.217Z,54.03
2022-11-02T14:35:00.850Z,53.08
2022-11-02T14:38:06.573Z,53.19
2022-11-02T14:40:47.781Z,52.44
2022-11-02T14:43:53.547Z,52.61
2022-11-02T14:46:57.149Z,52.53
2022-11-02T14:49:34.625Z,52.45
2022-11-02T14:52:13.461Z,52.73
2022-11-02T14:55:28.254Z,52.65
2022-11-02T15:02:49.080Z,53.38
2022-11-02T15:06:17.660Z,54.18
2022-11-02T15:09:04.162Z,54.72
2022-11-02T15:11:56.834Z,55.32
2022-11-02T15:14:37.984Z,55.92
2022-11-02T15:17:14.755Z,56.15
2022-11-02T15:19:49.646Z,56.49
2022-11-02T15:22:32.775Z,56.79
2022-11-02T15:25:10.347Z,57.14
2022-11-02T15:27:41.336Z,57.41
2022-11-02T15:30:15.599Z,57.45
2022-11-02T15:32:51.692Z,57.60
2022-11-02T15:35:23.102Z,57.94
2022-11-02T15:38:19.220Z,57.87
2022-11-02T15:41:32.349Z,58.11
2022-11-02T15:44:12.022Z,58.38
2022-11-02T15:46:53.570Z,58.53
2022-11-02T15:49:33.465Z,58.65
2022-11-02T15:52:17.426Z,58.78
2022-11-02T15:55:08.621Z,58.97
2022-11-02T15:57:51.744Z,59.25
2022-11-02T16:00:30.124Z,59.50
2022-11-02T16:03:09.471Z,59.76
2022-11-02T16:05:46.815Z,59.97
2022-11-02T16:08:30.666Z,60.02
2022-11-02T16:11:17.760Z,60.48
2022-11-02T16:14:07.984Z,60.77
2022-11-02T16:16:46.516Z,60.96
2022-11-02T16:19:21.665Z,61.23
2022-11-02T16:21:50.444Z,61.52
2022-11-02T16:24:19.445Z,61.67
2022-11-02T16:26:49.140Z,61.92
2022-11-02T16:29:30.825Z,62.07
2022-11-02T16:31:58.748Z,62.38
2022-11-02T16:34:31.685Z,62.63
2022-11-02T16:37:07.306Z,62.65
2022-11-02T16:39:42.148Z,62.82
2022-11-02T16:42:19.508Z,63.03
2022-11-02T16:44:59.472Z,63.22
2022-11-02T16:47:40.339Z,63.78
2022-11-02T16:50:22.465Z,63.76
2022-11-02T16:53:27.908Z,63.92
2022-11-02T16:56:00.781Z,64.07
2022-11-02T16:58:29.014Z,64.06
2022-11-02T17:01:02.309Z,64.41
2022-11-02T17:03:31.928Z,64.58
2022-11-02T17:06:05.034Z,64.76
2022-11-02T17:08:38.797Z,64.86
2022-11-02T17:11:13.631Z,65.28
2022-11-02T17:13:48.745Z,65.85
2022-11-02T17:16:16.852Z,66.15
2022-11-02T17:18:44.748Z,66.43
2022-11-02T17:21:12.392Z,66.84
2022-11-02T17:23:45.286Z,66.95
2022-11-02T17:26:34.304Z,67.17
2022-11-02T17:29:27.257Z,67.63
2022-11-02T17:31:57.341Z,67.86
2022-11-02T17:34:25.312Z,67.93
2022-11-02T17:36:53.668Z,67.85
2022-11-02T17:39:21.631Z,68.08
2022-11-02T17:42:13.752Z,68.27
2022-11-02T17:44:48.309Z,68.11
2022-11-02T17:47:18.484Z,68.48
2022-11-02T17:49:46.388Z,68.32
2022-11-02T17:52:16.548Z,68.42
2022-11-02T17:54:44.353Z,68.82
2022-11-02T17:57:13.535Z,68.81
2022-11-02T17:59:41.218Z,68.85
2022-11-02T18:02:12.401Z,69.23
2022-11-02T18:04:40.375Z,69.34
2022-11-02T18:07:08.166Z,69.36
2022-11-02T18:09:36.980Z,69.36
2022-11-02T18:12:04.939Z,69.52
2022-11-02T18:14:32.695Z,69.42
2022-11-02T18:17:00.397Z,69.42
2022-11-02T18:19:28.314Z,69.57
2022-11-02T18:21:55.966Z,69.71
2022-11-02T18:24:23.665Z,69.93
2022-11-02T18:26:51.951Z,69.91
2022-11-02T18:29:20.394Z,70.11
2022-11-02T18:31:48.150Z,70.36
2022-11-02T18:34:15.972Z,70.19
2022-11-02T18:36:45.707Z,70.32
2022-11-02T18:39:13.484Z,70.40
2022-11-02T18:41:42.876Z,70.22
2022-11-02T18:44:15.208Z,70.52
2022-11-02T18:46:43.482Z,70.83
2022-11-02T18:49:11.224Z,70.99
2022-11-02T18:51:43.045Z,71.05
2022-11-02T18:54:12.242Z,71.03
2022-11-02T18:56:40.036Z,70.98
2022-11-02T18:59:07.813Z,70.77
2022-11-02T19:01:39.116Z,71.41
2022-11-02T19:04:07.228Z,71.25
2022-11-02T19:06:53.511Z,71.27
2022-11-02T19:09:24.022Z,71.48
2022-11-02T19:12:05.181Z,71.50
2022-11-02T19:14:41.441Z,71.79
2022-11-02T19:17:10.332Z,71.81
2022-11-02T19:19:43.088Z,71.99
2022-11-02T19:22:14.508Z,72.06
2022-11-02T19:24:42.676Z,72.07
2022-11-02T19:27:16.295Z,72.07
2022-11-02T19:29:44.553Z,72.11
2022-11-02T19:32:12.646Z,72.38
2022-11-02T19:34:40.782Z,72.59
2022-11-02T19:37:09.095Z,72.73
2022-11-02T19:39:37.180Z,72.87
2022-11-02T19:42:07.252Z,72.74
2022-11-02T19:44:41.299Z,72.87
2022-11-02T19:47:10.742Z,72.86
2022-11-02T19:49:38.568Z,72.79
2022-11-02T19:52:06.391Z,72.72
2022-11-02T19:54:34.116Z,72.75
2022-11-02T19:57:02.125Z,72.69
2022-11-02T19:59:30.480Z,72.64
2022-11-02T20:01:58.265Z,72.60
2022-11-02T20:04:26.437Z,72.53
2022-11-02T20:06:54.208Z,72.51
2022-11-02T20:09:21.965Z,72.26
2022-11-02T20:11:50.029Z,72.32
2022-11-02T20:14:18.182Z,72.45
2022-11-02T20:16:58.368Z,72.59
2022-11-02T20:19:32.503Z,72.66
2022-11-02T20:22:00.215Z,72.62
2022-11-02T20:24:30.323Z,72.69
2022-11-02T20:27:02.761Z,72.81
2022-11-02T20:29:30.512Z,72.92
2022-11-02T20:31:58.279Z,72.98
2022-11-02T20:34:26.368Z,73.00
2022-11-02T20:36:54.038Z,73.13
2022-11-02T20:39:21.771Z,73.15
2022-11-02T20:41:55.814Z,73.09
2022-11-02T20:44:24.077Z,73.30
2022-11-02T20:46:53.488Z,73.38
2022-11-02T20:49:48.286Z,73.51
2022-11-02T20:52:10.496Z,73.63
2022-11-02T20:54:38.204Z,73.72
2022-11-02T20:57:06.028Z,73.72
2022-11-02T20:59:33.837Z,73.73
2022-11-02T21:02:01.698Z,73.79
2022-11-02T21:04:29.521Z,73.91
2022-11-02T21:06:57.634Z,73.74
2022-11-02T21:09:25.333Z,73.76
2022-11-02T21:12:11.591Z,73.57
2022-11-02T21:14:39.927Z,73.44
2022-11-02T21:17:07.701Z,73.74
2022-11-02T21:19:35.555Z,73.61
2022-11-02T21:22:03.591Z,73.50
2022-11-02T21:24:31.309Z,73.48
2022-11-02T21:26:58.959Z,73.51
2022-11-02T21:29:27.057Z,73.29
2022-11-02T21:31:54.835Z,73.57
2022-11-02T21:34:22.546Z,73.55
2022-11-02T21:36:50.600Z,73.57
2022-11-02T21:39:18.320Z,73.75
2022-11-02T21:41:46.865Z,73.86
2022-11-02T21:44:15.090Z,73.97
2022-11-02T21:46:42.808Z,73.88
2022-11-02T21:49:10.559Z,73.88
2022-11-02T21:51:38.612Z,74.16
2022-11-02T21:54:06.376Z,74.12
2022-11-02T21:56:35.945Z,74.18
2022-11-02T21:59:09.450Z,74.08
2022-11-02T22:01:50.267Z,74.31
2022-11-02T22:04:28.898Z,74.18
2022-11-02T22:06:57.582Z,74.25
2022-11-02T22:09:26.010Z,74.50
2022-11-02T22:12:12.693Z,74.49
2022-11-02T22:14:42.519Z,74.51
2022-11-02T22:17:22.017Z,74.62
2022-11-02T22:19:58.341Z,74.62
2022-11-02T22:22:27.637Z,74.75
2022-11-02T22:24:55.232Z,74.67
2022-11-02T22:27:23.156Z,75.04
2022-11-02T22:29:50.849Z,74.90
2022-11-02T22:32:18.535Z,75.06
2022-11-02T22:34:46.942Z,74.94
2022-11-02T22:37:33.049Z,74.96
2022-11-02T22:40:01.339Z,75.07
2022-11-02T22:42:29.024Z,75.17
2022-11-02T22:44:58.696Z,75.47
2022-11-02T22:47:26.615Z,75.38
2022-11-02T22:49:54.379Z,75.55
2022-11-02T22:52:22.069Z,75.56
2022-11-02T22:54:49.961Z,75.84
2022-11-02T22:57:17.972Z,76.02
2022-11-02T22:59:45.642Z,76.00
2022-11-02T23:02:13.626Z,75.97
2022-11-02T23:04:41.524Z,76.01
2022-11-02T23:07:10.758Z,76.05
2022-11-02T23:09:38.735Z,76.12
2022-11-02T23:12:06.783Z,76.14
2022-11-02T23:14:34.455Z,76.20
2022-11-02T23:17:02.223Z,76.08
2022-11-02T23:19:30.282Z,76.09
2022-11-02T23:22:28.141Z,76.12
2022-11-02T23:25:14.033Z,76.24
2022-11-02T23:28:06.021Z,76.07
2022-11-02T23:30:55.672Z,76.06
2022-11-02T23:33:25.304Z,76.00
2022-11-02T23:36:11.542Z,75.91
2022-11-02T23:38:59.453Z,75.91
2022-11-02T23:41:28.282Z,75.93
2022-11-02T23:44:11.844Z,75.75
2022-11-02T23:46:42.372Z,75.81
2022-11-02T23:49:11.407Z,75.82
2022-11-02T23:51:58.167Z,75.84
2022-11-02T23:54:45.360Z,75.83
2022-11-02T23:57:13.182Z,75.70
2022-11-02T23:59:41.173Z,75.70
